Time;durP1;ratioP1;P1;durP2;ratioP2;P2;SDS_P1;SDS_P2;PMS_P1;PMS_P2;Temp;Humidity;BMP_temperature;BMP_pressure;BME280_temperature;BME280_humidity;BME280_pressure;Samples;Min_cycle;Max_cycle;Signal;HPM_P1;HPM_P2
2023/06/05 05:02:03;;;;;;;;;2.00;2.00;;;;;20.61;44.73;68850.13;6352449;22;45883;-94
2023/06/05 05:04:31;;;;;;;;;1.00;1.00;;;;;20.65;45.17;68784.41;6384754;22;44896;-93
2023/06/05 05:07:01;;;;;;;;;2.00;1.33;;;;;20.32;44.89;68716.31;6384613;22;44903;-94
2023/06/05 05:09:35;;;;;;;;;1.33;1.33;;;;;20.57;45.17;68751.31;6384826;22;46035;-94
2023/06/05 05:12:00;;;;;;;;;1.67;1.67;;;;;20.66;45.02;68790.97;6385068;22;46642;-94
2023/06/05 05:14:27;;;;;;;;;1.00;1.00;;;;;20.53;44.89;68808.34;6383761;22;45128;-96
2023/06/05 05:16:52;;;;;;;;;1.00;1.00;;;;;20.58;45.69;68776.69;6384642;22;45060;-93
2023/06/05 05:19:18;;;;;;;;;3.00;2.00;;;;;20.68;45.27;68728.84;6383121;22;45225;-94
2023/06/05 05:21:45;;;;;;;;;1.67;1.67;;;;;20.70;45.12;68735.97;6384070;22;44974;-93
2023/06/05 05:24:10;;;;;;;;;1.00;1.00;;;;;20.70;45.26;68757.47;6357497;22;44990;-89
2023/06/05 05:26:36;;;;;;;;;1.00;1.00;;;;;20.72;45.60;68676.56;6383635;22;45023;-90
2023/06/05 05:29:01;;;;;;;;;1.67;1.67;;;;;20.37;45.94;68732.97;6382210;22;46292;-90
2023/06/05 05:31:27;;;;;;;;;2.33;2.33;;;;;20.71;46.01;68675.97;6383676;22;45059;-90
2023/06/05 05:33:54;;;;;;;;;1.00;1.00;;;;;20.53;45.43;68635.84;6383677;22;44973;-89
2023/06/05 05:36:20;;;;;;;;;1.00;1.00;;;;;20.73;45.81;68683.13;6384081;22;45037;-91
2023/06/05 05:38:45;;;;;;;;;2.00;2.00;;;;;20.75;45.61;68629.06;6382831;22;45229;-91
2023/06/05 05:41:11;;;;;;;;;0.67;0.67;;;;;20.61;45.10;68642.66;6382413;22;45029;-93
2023/06/05 05:43:36;;;;;;;;;2.00;2.00;;;;;20.79;45.51;68652.59;6382326;22;45386;-92
2023/06/05 05:46:01;;;;;;;;;2.00;2.00;;;;;20.81;45.49;68641.50;6382321;22;45010;-92
2023/06/05 05:48:26;;;;;;;;;1.00;1.00;;;;;20.82;45.81;68626.59;6381120;22;45089;-89
2023/06/05 05:50:52;;;;;;;;;2.00;1.67;;;;;20.70;45.79;68585.50;6381398;22;45146;-91
2023/06/05 05:53:17;;;;;;;;;2.00;2.00;;;;;20.74;45.77;68558.00;6381647;22;45129;-90
2023/06/05 05:55:42;;;;;;;;;2.00;2.00;;;;;20.83;45.54;68604.16;6383809;22;45287;-91
2023/06/05 06:00:45;;;;;;;;;1.00;1.00;;;;;20.80;46.01;68495.81;6383046;22;44810;-93
2023/06/05 06:03:11;;;;;;;;;2.67;1.67;;;;;20.90;45.75;68630.66;6357432;22;44807;-91
2023/06/05 06:05:37;;;;;;;;;1.33;1.33;;;;;20.74;46.10;68572.03;6385754;22;44820;-94
2023/06/05 06:08:03;;;;;;;;;1.00;1.00;;;;;20.97;45.92;68563.66;6385696;22;45852;-95
2023/06/05 06:10:29;;;;;;;;;2.33;2.33;;;;;20.98;45.96;68546.03;6383808;22;44937;-92
2023/06/05 06:12:55;;;;;;;;;4.00;3.00;;;;;21.02;45.88;68574.94;6384479;22;44798;-96
2023/06/05 06:15:20;;;;;;;;;1.33;1.33;;;;;20.82;45.57;68562.09;6384940;22;45054;-92
2023/06/05 06:17:45;;;;;;;;;1.00;1.00;;;;;20.98;45.89;68581.00;6357302;22;47281;-91
2023/06/05 06:20:12;;;;;;;;;2.33;2.00;;;;;21.06;45.69;68509.78;6384414;22;44855;-90
2023/06/05 06:22:44;;;;;;;;;1.67;1.67;;;;;21.10;45.76;68572.50;6387459;22;44879;-93
2023/06/05 06:25:15;;;;;;;;;2.67;2.00;;;;;21.07;45.43;68543.25;6360957;22;44902;-92
2023/06/05 06:27:48;;;;;;;;;1.33;1.33;;;;;20.87;45.81;68517.50;6386753;22;46047;-92
2023/06/05 06:30:19;;;;;;;;;1.00;1.00;;;;;21.17;45.89;68500.09;6359122;22;44937;-95
2023/06/05 06:32:48;;;;;;;;;2.00;2.00;;;;;21.20;45.53;68492.88;6387283;22;45281;-86
2023/06/05 06:35:13;;;;;;;;;2.00;2.00;;;;;20.94;45.90;68492.34;6387352;22;45042;-89
2023/06/05 06:37:49;;;;;;;;;2.00;2.00;;;;;21.24;46.01;68508.34;6388301;22;45923;-89
2023/06/05 06:40:14;;;;;;;;;1.00;1.00;;;;;20.75;45.41;68535.00;6378465;22;44838;-90
2023/06/05 06:42:40;;;;;;;;;1.00;1.00;;;;;21.32;45.70;68541.41;6386888;22;45135;-91
2023/06/05 06:45:23;;;;;;;;;1.00;1.00;;;;;21.36;45.20;68524.63;6386988;22;45366;-88
2023/06/05 06:47:51;;;;;;;;;1.33;1.33;;;;;20.17;45.46;68428.56;6382271;22;45414;-89
2023/06/05 06:50:26;;;;;;;;;1.33;1.33;;;;;21.38;45.47;68540.44;6377030;22;45312;-91
2023/06/05 06:52:52;;;;;;;;;2.00;2.00;;;;;20.82;45.75;68447.09;6369618;22;45468;-89
2023/06/05 06:55:17;;;;;;;;;2.67;2.67;;;;;21.00;45.11;68462.38;6369836;22;45276;-88
2023/06/05 06:57:43;;;;;;;;;2.00;2.00;;;;;21.01;45.60;68457.59;6368490;22;45332;-90
2023/06/05 07:00:09;;;;;;;;;1.33;1.00;;;;;21.18;45.24;68509.31;6369464;22;45377;-92
2023/06/05 07:02:36;;;;;;;;;1.00;1.00;;;;;21.40;45.46;68526.66;6370419;22;45354;-91
2023/06/05 07:05:01;;;;;;;;;1.00;1.00;;;;;21.36;44.90;68495.03;6372600;22;45625;-95
2023/06/05 07:07:27;;;;;;;;;2.00;2.00;;;;;21.44;45.42;68466.81;6372750;22;46147;-94
2023/06/05 07:09:53;;;;;;;;;2.67;2.00;;;;;21.58;45.10;68469.28;6374849;22;45390;-94
2023/06/05 07:12:20;;;;;;;;;1.00;1.00;;;;;21.53;45.41;68523.19;6377736;22;45517;-95
2023/06/05 07:14:46;;;;;;;;;2.67;1.33;;;;;21.71;45.46;68484.63;6386089;22;45091;-92
2023/06/05 07:17:11;;;;;;;;;0.67;0.67;;;;;21.65;45.62;68467.38;6373127;22;45621;-92
2023/06/05 07:19:37;;;;;;;;;1.00;1.00;;;;;21.45;45.22;68511.63;6341223;22;45365;-87
2023/06/05 07:22:06;;;;;;;;;2.00;1.00;;;;;21.49;45.19;68445.81;6341577;22;45333;-87
2023/06/05 07:24:35;;;;;;;;;4.00;1.33;;;;;21.37;45.08;68515.63;6368894;22;45350;-86
2023/06/05 07:27:02;;;;;;;;;1.00;1.00;;;;;21.88;45.45;68415.25;6368110;22;46980;-86
2023/06/05 07:29:28;;;;;;;;;2.00;2.00;;;;;21.90;45.50;68453.19;6369879;22;45350;-85
2023/06/05 07:31:55;;;;;;;;;1.67;1.67;;;;;21.87;45.42;68406.59;6368452;22;45374;-86
2023/06/05 07:34:21;;;;;;;;;2.00;2.00;;;;;21.98;45.25;68431.84;6368174;22;45455;-86
2023/06/05 07:36:49;;;;;;;;;1.00;1.00;;;;;21.91;45.21;68414.00;6367304;22;47280;-85
2023/06/05 07:39:15;;;;;;;;;1.67;1.67;;;;;21.96;45.32;68488.69;6366847;22;45561;-86
2023/06/05 07:41:40;;;;;;;;;3.00;2.00;;;;;22.07;44.91;68469.38;6367964;22;45287;-86
2023/06/05 07:44:11;;;;;;;;;0.00;0.00;;;;;21.98;45.06;68488.38;6367977;22;45330;-86
2023/06/05 07:46:39;;;;;;;;;1.67;1.67;;;;;22.06;44.59;68482.25;6367864;22;46558;-91
2023/06/05 07:49:04;;;;;;;;;2.00;2.00;;;;;21.90;44.91;68434.34;6368141;22;45256;-92
2023/06/05 07:51:33;;;;;;;;;2.00;2.00;;;;;22.21;44.76;68453.00;6367539;22;45390;-89
2023/06/05 07:53:58;;;;;;;;;2.00;1.00;;;;;22.29;44.95;68376.22;6367351;22;45481;-89
2023/06/05 07:56:25;;;;;;;;;2.67;1.67;;;;;22.24;45.21;68427.50;6367091;22;48067;-87
2023/06/05 07:58:51;;;;;;;;;1.00;1.00;;;;;22.39;44.91;68452.06;6365530;22;45452;-88
2023/06/05 08:01:17;;;;;;;;;1.00;1.00;;;;;22.39;44.37;68479.59;6367537;22;45459;-88
2023/06/05 08:03:43;;;;;;;;;1.00;1.00;;;;;22.48;45.04;68505.78;6367807;22;45671;-87
2023/06/05 08:06:09;;;;;;;;;0.00;0.00;;;;;22.43;44.44;68491.78;6365913;22;46445;-87
2023/06/05 08:08:35;;;;;;;;;0.00;0.00;;;;;22.59;44.36;68462.16;6338933;22;45500;-89
2023/06/05 08:11:00;;;;;;;;;1.00;1.00;;;;;22.52;44.64;68470.69;6339119;22;45372;-87
2023/06/05 08:13:26;;;;;;;;;1.00;1.00;;;;;22.72;44.47;68498.47;6367298;22;45661;-87
2023/06/05 08:15:52;;;;;;;;;1.00;1.00;;;;;22.75;44.44;68529.53;6366356;22;46095;-87
2023/06/05 08:18:17;;;;;;;;;2.00;2.00;;;;;22.75;43.98;68494.47;6338755;22;45294;-86
2023/06/05 08:20:43;;;;;;;;;2.00;2.00;;;;;22.76;44.57;68506.47;6365642;22;45223;-85
2023/06/05 08:23:08;;;;;;;;;2.00;2.00;;;;;22.91;44.00;68501.38;6366482;22;45414;-85
2023/06/05 08:25:33;;;;;;;;;2.00;1.00;;;;;22.86;44.05;68477.22;6338799;22;49186;-86
2023/06/05 08:27:59;;;;;;;;;1.33;1.33;;;;;22.96;43.91;68491.69;6366104;22;57931;-87
2023/06/05 08:30:24;;;;;;;;;1.33;1.33;;;;;22.97;43.54;68492.88;6366772;22;47370;-87
2023/06/05 08:32:49;;;;;;;;;1.00;1.00;;;;;23.06;44.06;68472.66;6379731;22;44977;-86
2023/06/05 08:35:15;;;;;;;;;3.00;1.33;;;;;23.18;44.36;68473.91;6380661;22;45029;-87
2023/06/05 08:37:41;;;;;;;;;1.00;1.00;;;;;23.56;44.09;68493.19;6383458;22;45117;-87
2023/06/05 08:40:08;;;;;;;;;1.33;1.33;;;;;23.80;43.94;68466.31;6383829;22;45317;-84
2023/06/05 08:42:34;;;;;;;;;3.33;2.00;;;;;24.17;43.57;68424.97;6378949;22;44917;-84
2023/06/05 08:44:59;;;;;;;;;1.33;1.33;;;;;24.42;43.23;68332.75;6386107;22;46119;-92
2023/06/05 08:47:28;;;;;;;;;3.67;1.00;;;;;25.25;43.34;68246.03;6385280;22;44825;-85
2023/06/05 08:49:54;;;;;;;;;1.33;1.33;;;;;25.74;42.79;68223.78;6385591;22;44835;-86
2023/06/05 08:52:22;;;;;;;;;3.00;2.00;;;;;26.64;41.64;68245.59;6385281;22;45020;-86
2023/06/05 08:54:48;;;;;;;;;1.00;1.00;;;;;27.37;41.04;68315.22;6385637;22;46565;-85
2023/06/05 08:57:13;;;;;;;;;2.00;2.00;;;;;28.12;39.76;68523.72;6385460;22;44910;-84
2023/06/05 08:59:40;;;;;;;;;0.67;0.67;;;;;28.53;39.53;68561.97;6385691;22;44852;-85
2023/06/05 09:02:06;;;;;;;;;1.00;1.00;;;;;29.39;38.65;68636.19;6368307;22;45453;-86
2023/06/05 09:04:31;;;;;;;;;1.67;1.67;;;;;29.88;38.15;68804.38;6367206;22;46383;-86
2023/06/05 09:09:33;;;;;;;;;1.00;1.00;;;;;31.03;36.90;69296.91;6361702;22;45595;-86
2023/06/05 09:12:08;;;;;;;;;3.00;2.33;;;;;31.41;36.40;69423.34;6367140;22;45453;-84
2023/06/05 09:14:35;;;;;;;;;2.00;2.00;;;;;32.04;35.45;69605.19;6366861;22;45997;-83
2023/06/05 09:17:01;;;;;;;;;4.00;1.67;;;;;-145.03;100.00;62373.16;6384095;22;44479;-84
2023/06/05 09:19:40;;;;;;;;;1.00;1.00;;;;;-145.03;100.00;62373.16;6385425;22;27875;-84
2023/06/05 09:22:10;;;;;;;;;1.00;1.00;;;;;-145.03;100.00;62373.16;6385333;22;28547;-84
2023/06/05 09:24:37;;;;;;;;;2.75;2.75;;;;;-145.03;100.00;62373.16;6385286;22;29672;-85
2023/06/05 09:27:17;;;;;;;;;2.00;2.00;;;;;-145.03;100.00;62373.16;6386342;22;28515;-85
2023/06/05 09:29:45;;;;;;;;;2.75;2.00;;;;;-145.03;100.00;62373.16;6385496;22;28424;-87
2023/06/05 09:32:13;;;;;;;;;1.50;1.50;;;;;-145.03;100.00;62373.16;6385730;22;28471;-86
2023/06/05 09:34:40;;;;;;;;;3.25;2.00;;;;;-145.03;100.00;62373.16;6385995;22;30640;-83
2023/06/05 09:37:11;;;;;;;;;1.00;1.00;;;;;-145.03;100.00;62373.16;6384024;22;28377;-86
2023/06/05 09:39:39;;;;;;;;;1.33;1.33;;;;;34.95;32.66;70894.94;6338345;22;45318;-87
2023/06/05 09:42:06;;;;;;;;;3.00;3.00;;;;;35.84;31.06;71143.16;6366800;22;45408;-84
2023/06/05 09:44:35;;;;;;;;;2.00;2.00;;;;;36.24;31.43;71222.81;6366296;22;47192;-86
2023/06/05 09:47:07;;;;;;;;;1.67;1.67;;;;;36.50;31.22;71284.00;6366834;22;45310;-86
2023/06/05 09:49:52;;;;;;;;;0.00;0.00;;;;;36.98;30.36;71454.66;6367399;22;45291;-85
2023/06/05 09:52:18;;;;;;;;;1.33;1.33;;;;;37.25;30.31;71449.75;6366582;22;45633;-85
2023/06/05 09:54:45;;;;;;;;;0.33;0.33;;;;;37.59;30.15;71549.00;6366348;22;46254;-87
2023/06/05 09:57:13;;;;;;;;;1.00;1.00;;;;;37.96;29.86;71562.31;6367321;22;45307;-85
2023/06/05 09:59:52;;;;;;;;;2.00;0.33;;;;;38.24;29.57;71575.78;6360942;22;45451;-83
2023/06/05 10:02:20;;;;;;;;;1.00;1.00;;;;;38.25;28.07;71421.56;6366082;22;45515;-84
2023/06/05 10:04:49;;;;;;;;;1.00;1.00;;;;;-145.03;100.00;62373.16;6338630;22;48171;-85
2023/06/05 10:07:15;;;;;;;;;2.00;2.00;;;;;-145.03;100.00;62373.16;6384302;22;28479;-84
2023/06/05 10:09:41;;;;;;;;;1.33;1.33;;;;;-145.03;100.00;62373.16;6384147;22;28476;-86
2023/06/05 10:12:08;;;;;;;;;1.75;1.00;;;;;-145.03;100.00;62373.16;6385688;22;28503;-89
2023/06/05 10:14:41;;;;;;;;;1.00;1.00;;;;;-145.03;100.00;62373.16;6385314;22;29364;-86
2023/06/05 10:17:07;;;;;;;;;1.00;1.00;;;;;-145.03;100.00;62373.16;6357286;22;29055;-84
2023/06/05 10:19:32;;;;;;;;;1.67;1.33;;;;;-145.03;100.00;62373.16;6385040;22;28523;-86
2023/06/05 10:21:58;;;;;;;;;1.33;1.33;;;;;-145.03;100.00;62373.16;6386163;22;28425;-87
2023/06/05 10:24:44;;;;;;;;;0.33;0.33;;;;;-145.03;100.00;62373.16;6386194;22;29122;-87
2023/06/05 10:27:12;;;;;;;;;1.00;1.00;;;;;-145.03;100.00;62373.16;6384079;22;28453;-84
2023/06/05 10:30:01;;;;;;;;;1.75;1.75;;;;;-145.03;100.00;62373.16;6384796;22;28430;-86
2023/06/05 10:32:32;;;;;;;;;1.67;1.67;;;;;-145.03;100.00;62373.16;6385203;22;28576;-84
2023/06/05 10:35:21;;;;;;;;;0.25;0.25;;;;;-145.03;100.00;62373.16;6384791;22;29941;-85
2023/06/05 10:38:16;;;;;;;;;3.00;1.00;;;;;-145.03;100.00;62373.16;6384476;22;28431;-85
2023/06/05 10:40:42;;;;;;;;;0.75;0.75;;;;;-145.03;100.00;62373.16;6385656;22;28354;-85
2023/06/05 10:43:30;;;;;;;;;2.00;2.00;;;;;-145.03;100.00;62373.16;6386057;22;28489;-84
2023/06/05 10:46:00;;;;;;;;;1.67;1.67;;;;;-145.03;100.00;62373.16;6386004;22;29174;-85
2023/06/05 10:49:03;;;;;;;;;1.00;1.00;;;;;-145.03;100.00;62373.16;6384096;22;28413;-85
2023/06/05 10:51:43;;;;;;;;;0.25;0.25;;;;;-145.03;100.00;62373.16;6385073;22;28401;-88
2023/06/05 10:54:16;;;;;;;;;2.67;1.00;;;;;-145.03;100.00;62373.16;6385927;22;28466;-86
2023/06/05 10:57:06;;;;;;;;;0.33;0.33;;;;;-145.03;100.00;62373.16;6386743;22;29316;-87
2023/06/05 10:59:37;;;;;;;;;0.75;0.75;;;;;-145.03;100.00;62373.16;6385675;22;28611;-87
2023/06/05 11:02:09;;;;;;;;;1.25;1.25;;;;;-145.03;100.00;62373.16;6384533;22;28380;-87
2023/06/05 11:04:46;;;;;;;;;1.33;1.33;;;;;-145.03;100.00;62373.16;6385564;22;28366;-85
2023/06/05 11:07:21;;;;;;;;;0.33;0.33;;;;;-145.03;100.00;62373.16;6385879;22;28535;-85
2023/06/05 11:10:05;;;;;;;;;0.50;0.50;;;;;-145.03;100.00;62373.16;6386010;22;28384;-85
2023/06/05 11:12:52;;;;;;;;;2.25;2.00;;;;;-145.03;100.00;62373.16;6387189;22;28445;-86
2023/06/05 11:15:39;;;;;;;;;3.00;3.00;;;;;-145.03;100.00;62373.16;6386959;22;28372;-85
2023/06/05 11:18:33;;;;;;;;;1.75;1.00;;;;;-145.03;100.00;62373.16;6385871;22;29995;-86
2023/06/05 11:21:00;;;;;;;;;0.50;0.50;;;;;-145.03;100.00;62373.16;6386625;22;28836;-84
2023/06/05 11:23:29;;;;;;;;;0.00;0.00;;;;;-145.03;100.00;62373.16;6386811;22;28820;-86
2023/06/05 11:25:58;;;;;;;;;2.67;2.67;;;;;-145.03;100.00;62373.16;6386774;22;28436;-84
2023/06/05 11:28:41;;;;;;;;;2.00;2.00;;;;;-145.03;100.00;62373.16;6386675;22;29125;-84
2023/06/05 11:31:07;;;;;;;;;0.50;0.50;;;;;-145.03;100.00;62373.16;6386284;22;28440;-83
2023/06/05 11:33:32;;;;;;;;;3.00;3.00;;;;;-145.03;100.00;62373.16;6385925;22;28540;-84
2023/06/05 11:36:08;;;;;;;;;1.00;1.00;;;;;-145.03;100.00;62373.16;6386794;22;28491;-84
2023/06/05 11:38:34;;;;;;;;;2.00;2.00;;;;;-145.03;100.00;62373.16;6386627;22;28428;-84
2023/06/05 11:40:59;;;;;;;;;1.67;1.33;;;;;-145.03;100.00;62373.16;6386338;22;28452;-84
2023/06/05 11:43:25;;;;;;;;;1.67;1.67;;;;;-145.03;100.00;62373.16;6386595;22;28367;-83
2023/06/05 11:45:52;;;;;;;;;2.00;2.00;;;;;37.77;24.86;70174.94;6376286;22;45474;-84
2023/06/05 11:48:17;;;;;;;;;3.00;3.00;;;;;37.42;25.15;70159.25;6339231;22;47322;-82
2023/06/05 11:50:59;;;;;;;;;3.00;3.00;;;;;36.93;25.71;70141.25;6367548;22;45443;-84
2023/06/05 11:53:26;;;;;;;;;3.00;3.00;;;;;35.76;25.37;70133.56;6367715;22;45352;-84
2023/06/05 11:58:26;;;;;;;;;0.67;0.67;;;;;35.62;26.12;70153.84;6368170;22;45834;-84
2023/06/05 12:01:03;;;;;;;;;2.00;2.00;;;;;35.00;26.03;70180.56;6366842;22;45326;-84
2023/06/05 12:03:28;;;;;;;;;2.00;2.00;;;;;34.32;27.01;70139.00;6339369;22;45761;-85
2023/06/05 12:05:54;;;;;;;;;2.00;2.00;;;;;34.73;27.81;70195.06;6367949;22;45399;-86
2023/06/05 12:08:32;;;;;;;;;1.67;1.67;;;;;34.09;27.25;70125.81;6366864;22;46539;-84
2023/06/05 12:10:57;;;;;;;;;2.33;2.33;;;;;34.29;27.57;70206.81;6367634;22;45461;-84
2023/06/05 12:13:22;;;;;;;;;1.67;1.67;;;;;34.09;28.28;70195.09;6367250;22;45512;-86
2023/06/05 12:16:00;;;;;;;;;1.67;1.67;;;;;33.89;28.43;70250.75;6367915;22;45670;-84
2023/06/05 12:18:33;;;;;;;;;0.00;0.00;;;;;33.46;28.82;70165.41;6367105;22;47198;-85
2023/06/05 12:21:00;;;;;;;;;1.67;1.67;;;;;33.55;28.39;70307.22;6367987;22;45371;-86
2023/06/05 12:23:25;;;;;;;;;3.00;1.00;;;;;33.41;29.14;70192.94;6367499;22;45330;-86
2023/06/05 12:26:03;;;;;;;;;3.00;3.00;;;;;33.25;29.06;70278.00;6368319;22;45597;-85
2023/06/05 12:28:31;;;;;;;;;2.00;2.00;;;;;33.11;29.43;70242.63;6367736;22;45543;-85
2023/06/05 12:30:57;;;;;;;;;1.67;1.67;;;;;32.77;29.32;70271.56;6366725;22;45709;-87
2023/06/05 12:33:24;;;;;;;;;2.00;1.67;;;;;32.87;29.56;70266.50;6367733;22;45394;-85
2023/06/05 12:36:05;;;;;;;;;2.00;2.00;;;;;32.71;29.77;70187.06;6367064;22;45359;-86
2023/06/05 12:38:36;;;;;;;;;1.67;1.67;;;;;32.53;29.62;70251.03;6367104;22;45468;-86
2023/06/05 12:41:01;;;;;;;;;3.67;2.67;;;;;32.35;29.76;70206.00;6367235;22;45374;-86
2023/06/05 12:43:26;;;;;;;;;2.00;2.00;;;;;32.02;30.17;70167.09;6367602;22;47176;-86
2023/06/05 12:45:52;;;;;;;;;2.33;2.33;;;;;31.91;30.28;70269.41;6367435;22;45434;-85
2023/06/05 12:48:19;;;;;;;;;2.33;2.33;;;;;31.70;29.99;70162.78;6366997;22;45409;-85
2023/06/05 12:50:44;;;;;;;;;3.00;2.67;;;;;31.72;30.44;70180.97;6366880;22;45406;-86
2023/06/05 12:53:10;;;;;;;;;2.00;2.00;;;;;31.54;30.60;70179.75;6366691;22;49945;-85
2023/06/05 12:55:35;;;;;;;;;1.33;1.33;;;;;31.44;30.83;70164.44;6368001;22;45688;-86
2023/06/05 12:58:00;;;;;;;;;3.00;3.00;;;;;31.23;30.40;70192.38;6367336;22;49903;-89
2023/06/05 13:00:25;;;;;;;;;2.00;2.00;;;;;31.17;30.90;70160.63;6367074;22;45416;-87
2023/06/05 13:02:51;;;;;;;;;2.67;2.33;;;;;30.96;30.60;70143.66;6367665;22;45689;-86
2023/06/05 13:05:17;;;;;;;;;2.67;2.67;;;;;30.87;31.02;70163.50;6367112;22;45552;-86
2023/06/05 13:07:42;;;;;;;;;2.00;2.00;;;;;30.76;30.84;70133.91;6367675;22;45509;-84
2023/06/05 13:10:10;;;;;;;;;2.00;2.00;;;;;30.84;31.03;70132.59;6367159;22;45412;-86
2023/06/05 13:12:36;;;;;;;;;3.00;3.00;;;;;30.69;31.53;70211.38;6366769;22;45365;-85
2023/06/05 13:15:06;;;;;;;;;3.00;3.00;;;;;-97.90;32.08;68586.97;6373597;22;45323;-85
2023/06/05 13:17:35;;;;;;;;;2.00;2.00;;;;;-97.90;32.08;68586.97;6384943;22;28666;-86
2023/06/05 13:20:00;;;;;;;;;2.00;2.00;;;;;-97.90;32.08;68586.97;6386505;22;28719;-84
2023/06/05 13:22:26;;;;;;;;;2.67;2.33;;;;;-97.90;32.08;68586.97;6385006;22;28396;-85
2023/06/05 13:24:52;;;;;;;;;2.00;2.00;;;;;-97.90;32.08;68586.97;6386688;22;28392;-85
2023/06/05 13:27:18;;;;;;;;;1.00;1.00;;;;;-97.90;32.08;68586.97;6385088;22;29726;-86
2023/06/05 13:29:44;;;;;;;;;2.25;2.25;;;;;-145.03;32.08;66783.59;6384977;22;28460;-85
2023/06/05 13:32:09;;;;;;;;;2.00;2.00;;;;;-97.90;33.13;68875.50;6385981;22;28607;-85
2023/06/05 13:34:34;;;;;;;;;2.00;2.00;;;;;-145.03;100.00;62373.16;6386563;22;28676;-85
2023/06/05 13:37:00;;;;;;;;;1.33;1.33;;;;;30.06;31.95;63030.81;6384714;22;28967;-88
2023/06/05 13:39:32;;;;;;;;;1.67;1.67;;;;;-97.90;31.99;68916.97;6385743;22;28409;-87
2023/06/05 13:41:57;;;;;;;;;4.00;2.00;;;;;-97.90;33.13;68586.97;6385299;22;28450;-85
2023/06/05 13:44:23;;;;;;;;;1.00;1.00;;;;;-97.90;30.64;68914.47;6386048;22;28436;-86
2023/06/05 13:46:48;;;;;;;;;2.33;1.00;;;;;-97.90;33.13;68586.97;6386883;22;29277;-85
2023/06/05 13:49:14;;;;;;;;;3.00;3.00;;;;;-97.90;33.13;68586.97;6385729;22;28582;-86
2023/06/05 13:51:39;;;;;;;;;1.00;1.00;;;;;-97.90;33.13;68586.97;6386001;22;28507;-87
2023/06/05 13:54:06;;;;;;;;;2.00;2.00;;;;;-97.90;31.97;68586.97;6386753;22;28449;-84
2023/06/05 13:56:31;;;;;;;;;1.00;1.00;;;;;-97.90;33.13;68586.97;6385409;22;28533;-79
2023/06/05 13:58:59;;;;;;;;;1.33;1.33;;;;;;;;6385640;22;28508;-86
2023/06/05 14:01:25;;;;;;;;;1.00;1.00;;;;;-97.90;33.13;68844.19;6385423;22;28527;-85
2023/06/05 14:03:50;;;;;;;;;2.33;2.00;;;;;-97.90;31.99;68916.97;6356631;22;28628;-85
2023/06/05 14:06:17;;;;;;;;;0.33;0.33;;;;;-97.90;33.13;68586.97;6383886;22;28491;-86
2023/06/05 14:08:42;;;;;;;;;3.25;2.25;;;;;;;;6385733;22;28382;-85
2023/06/05 14:11:08;;;;;;;;;2.67;1.67;;;;;-97.90;31.97;68844.19;6384782;22;28449;-87
2023/06/05 14:13:35;;;;;;;;;2.33;2.33;;;;;-97.90;33.16;68514.53;6385570;22;28524;-84
2023/06/05 14:16:00;;;;;;;;;1.00;1.00;;;;;;;;6383592;22;29371;-85
2023/06/05 14:18:26;;;;;;;;;2.00;2.00;;;;;-97.90;33.13;68586.97;6383497;22;28738;-88
2023/06/05 14:20:51;;;;;;;;;0.33;0.33;;;;;-97.90;33.13;68586.97;6384298;22;28413;-89
2023/06/05 14:23:17;;;;;;;;;4.67;3.00;;;;;-97.90;33.13;68586.97;6385183;22;28433;-87
2023/06/05 14:25:44;;;;;;;;;1.33;1.33;;;;;-97.90;31.99;68844.19;6384235;22;28803;-94
2023/06/05 14:28:10;;;;;;;;;1.00;1.00;;;;;-145.03;33.13;51417.00;6388645;22;28311;-88
2023/06/05 14:30:35;;;;;;;;;2.33;2.33;;;;;-97.90;32.00;68586.97;6386105;22;28457;-85
2023/06/05 14:33:00;;;;;;;;;2.00;2.00;;;;;-97.90;23.78;68586.97;6384472;22;28609;-87
2023/06/05 14:35:35;;;;;;;;;1.00;1.00;;;;;-97.90;31.99;68844.19;6382579;22;29375;-87
2023/06/05 14:38:00;;;;;;;;;2.00;2.00;;;;;-97.90;33.13;68586.97;6384044;22;28611;-84
2023/06/05 14:40:33;;;;;;;;;1.00;1.00;;;;;-97.90;31.97;68844.19;6383778;22;28393;-87
2023/06/05 14:42:59;;;;;;;;;2.00;2.00;;;;;-97.90;33.13;68586.97;6384156;22;28651;-85
2023/06/05 14:45:25;;;;;;;;;3.00;1.00;;;;;-145.03;31.99;69986.66;6385928;22;28373;-86
2023/06/05 14:47:50;;;;;;;;;3.00;1.67;;;;;-145.03;34.63;63553.03;6386181;22;28341;-86
2023/06/05 14:50:16;;;;;;;;;2.00;1.33;;;;;-97.90;34.71;69045.84;6386302;22;28464;-85
2023/06/05 14:52:41;;;;;;;;;1.00;1.00;;;;;-97.90;35.04;68586.97;6387376;22;28391;-87
2023/06/05 14:55:07;;;;;;;;;1.33;1.33;;;;;-97.90;34.71;68944.38;6383541;22;28424;-88
2023/06/05 14:57:33;;;;;;;;;0.67;0.67;;;;;-97.90;35.05;68586.97;6357408;22;28358;-87
2023/06/05 14:59:59;;;;;;;;;1.00;1.00;;;;;-97.90;35.05;68586.97;6387042;22;28436;-84
2023/06/05 15:02:25;;;;;;;;;3.33;2.00;;;;;-97.90;34.71;69045.84;6386194;22;28461;-85
2023/06/05 15:04:52;;;;;;;;;1.33;1.33;;;;;-97.90;35.05;68586.97;6386367;22;28460;-88
2023/06/05 15:07:20;;;;;;;;;4.75;3.50;;;;;-97.90;34.71;68944.38;6381515;22;28898;-86
2023/06/05 15:09:50;;;;;;;;;3.50;3.00;;;;;-97.90;34.71;68944.38;6383563;22;28343;-85
2023/06/05 15:12:57;;;;;;;;;4.00;2.67;;;;;28.65;34.41;70037.53;6362567;22;45610;-85
2023/06/05 15:15:27;;;;;;;;;4.00;4.00;;;;;28.41;34.45;69976.72;6283428;22;46034;-83
2023/06/05 15:17:53;;;;;;;;;5.00;5.00;;;;;27.91;34.15;70015.88;6362956;22;45363;-83
2023/06/05 15:20:19;;;;;;;;;6.33;3.00;;;;;28.43;34.32;69962.78;6367064;22;45366;-81
2023/06/05 15:22:45;;;;;;;;;2.00;2.00;;;;;28.35;34.25;69994.63;6367655;22;45424;-81
2023/06/05 15:25:10;;;;;;;;;3.00;3.00;;;;;28.31;34.15;69967.47;6369754;22;45530;-83
2023/06/05 15:27:36;;;;;;;;;2.00;2.00;;;;;28.28;34.27;69988.94;6367856;22;45800;-83
2023/06/05 15:30:02;;;;;;;;;2.67;2.00;;;;;28.06;34.14;69984.94;6367873;22;45286;-81
2023/06/05 15:32:28;;;;;;;;;3.00;2.00;;;;;28.22;34.13;69962.13;6368126;22;45481;-84
2023/06/05 15:34:53;;;;;;;;;2.67;2.67;;;;;28.19;33.97;70005.38;6367476;22;45383;-82
2023/06/05 15:37:18;;;;;;;;;3.00;3.00;;;;;27.71;33.99;69883.78;6367571;22;45860;-81
2023/06/05 15:39:44;;;;;;;;;2.00;2.00;;;;;28.13;34.28;70050.44;6366682;22;45751;-81
2023/06/05 15:42:09;;;;;;;;;4.00;3.00;;;;;28.10;34.00;69954.38;6367776;22;45914;-81
2023/06/05 15:44:40;;;;;;;;;3.00;2.00;;;;;27.78;33.95;69890.03;6367321;22;46094;-81
2023/06/05 15:47:06;;;;;;;;;1.33;1.33;;;;;28.11;34.10;69927.78;6367938;22;45616;-80
2023/06/05 15:49:32;;;;;;;;;2.00;2.00;;;;;28.09;34.06;69917.22;6367496;22;45487;-80
2023/06/05 15:52:00;;;;;;;;;2.67;2.33;;;;;28.07;34.34;69952.88;6368086;22;45516;-80
2023/06/05 15:54:25;;;;;;;;;1.67;1.67;;;;;28.06;33.97;69948.97;6366078;22;47154;-79
2023/06/05 15:57:07;;;;;;;;;2.00;2.00;;;;;27.61;33.94;69915.88;6367880;22;45357;-80
2023/06/05 15:59:32;;;;;;;;;2.00;2.00;;;;;28.01;34.10;69962.03;6367944;22;45397;-80
2023/06/05 16:01:57;;;;;;;;;3.00;3.00;;;;;27.84;34.19;69934.72;6367285;22;45463;-80
2023/06/05 16:04:23;;;;;;;;;3.33;2.00;;;;;27.42;34.46;69882.25;6361922;22;45693;-82
2023/06/05 16:06:48;;;;;;;;;1.67;1.67;;;;;27.25;34.30;69859.78;6365872;22;45405;-81
2023/06/05 16:09:13;;;;;;;;;2.67;2.67;;;;;27.89;34.41;69957.00;6367281;22;45374;-81
2023/06/05 16:11:39;;;;;;;;;3.00;2.00;;;;;27.88;34.47;69939.47;6366595;22;49179;-81
2023/06/05 16:14:04;;;;;;;;;1.00;1.00;;;;;27.75;34.50;69932.66;6367509;22;47248;-81
2023/06/05 16:16:30;;;;;;;;;1.33;1.33;;;;;27.27;34.75;69883.91;6366571;22;45391;-79
2023/06/05 16:18:59;;;;;;;;;1.00;1.00;;;;;27.44;34.75;69855.38;6367360;22;45389;-78
2023/06/05 16:21:25;;;;;;;;;2.00;2.00;;;;;27.43;34.75;69900.34;6366893;22;45327;-78
2023/06/05 16:23:51;;;;;;;;;2.00;2.00;;;;;27.71;35.06;69902.81;6366478;22;46292;-78
2023/06/05 16:26:16;;;;;;;;;2.00;2.00;;;;;27.69;34.66;69901.00;6366982;22;45379;-79
2023/06/05 16:28:41;;;;;;;;;2.00;2.00;;;;;27.39;34.81;69901.00;6338715;22;45361;-81
2023/06/05 16:31:08;;;;;;;;;1.67;1.67;;;;;27.55;35.11;69914.13;6367293;22;45336;-80
2023/06/05 16:33:33;;;;;;;;;2.00;2.00;;;;;27.45;35.02;69940.78;6339204;22;45990;-79
2023/06/05 16:35:59;;;;;;;;;2.00;2.00;;;;;27.40;35.25;69896.78;6366638;22;45349;-80
2023/06/05 16:38:24;;;;;;;;;2.00;2.00;;;;;27.38;35.21;69888.94;6365581;22;45385;-81
2023/06/05 16:40:50;;;;;;;;;2.00;2.00;;;;;27.52;35.46;69910.53;6366804;22;45682;-80
2023/06/05 16:43:15;;;;;;;;;2.00;2.00;;;;;27.35;35.42;69923.97;6366105;22;46811;-81